Time;durP1;ratioP1;P1;durP2;ratioP2;P2;SDS_P1;SDS_P2;PMS_P1;PMS_P2;Temp;Humidity;BMP_temperature;BMP_pressure;BME280_temperature;BME280_humidity;BME280_pressure;Samples;Min_cycle;Max_cycle;Signal;HPM_P1;HPM_P2
2022/01/19 00:02:17;;;;;;;30.38;8.68;;;;;;;;;;6273844;22;20078;-77
2022/01/19 00:04:42;;;;;;;33.95;10.55;;;;;;;;;;6275413;22;19999;-77
2022/01/19 00:07:07;;;;;;;22.65;7.95;;;;;;;;;;6275491;22;20003;-77
2022/01/19 00:09:33;;;;;;;21.60;6.97;;;;;;;;;;6275464;22;20007;-77
2022/01/19 00:11:58;;;;;;;18.00;6.03;;;;;;;;;;6251030;22;20007;-77
2022/01/19 00:14:24;;;;;;;20.92;6.05;;;;;;;;;;6275751;22;20331;-77
2022/01/19 00:16:49;;;;;;;18.13;5.38;;;;;;;;;;6275237;22;19999;-77
2022/01/19 00:19:15;;;;;;;17.08;5.32;;;;;;;;;;6275550;22;20045;-77
2022/01/19 00:21:40;;;;;;;18.75;5.53;;;;;;;;;;6262211;22;19999;-77
2022/01/19 00:24:06;;;;;;;20.05;5.60;;;;;;;;;;6275366;22;20034;-77
2022/01/19 00:26:32;;;;;;;16.83;6.13;;;;;;;;;;6275093;22;20007;-77
2022/01/19 00:28:59;;;;;;;20.98;6.13;;;;;;;;;;6247889;22;20125;-77
2022/01/19 00:31:24;;;;;;;19.85;5.72;;;;;;;;;;6274308;22;20126;-77
2022/01/19 00:33:49;;;;;;;12.15;5.00;;;;;;;;;;6274420;22;20362;-77
2022/01/19 00:36:15;;;;;;;15.38;5.78;;;;;;;;;;6275021;22;20078;-77
2022/01/19 00:38:40;;;;;;;19.20;5.82;;;;;;;;;;6275252;22;20003;-77
2022/01/19 00:41:06;;;;;;;14.98;5.10;;;;;;;;;;6276010;22;20347;-77
2022/01/19 00:43:35;;;;;;;14.13;5.70;;;;;;;;;;6282121;22;20027;-77
2022/01/19 00:46:01;;;;;;;14.00;5.78;;;;;;;;;;6273896;22;20004;-77
2022/01/19 00:48:27;;;;;;;12.88;4.80;;;;;;;;;;6273740;22;20390;-77
2022/01/19 00:50:52;;;;;;;20.15;5.72;;;;;;;;;;6275582;22;20007;-78
2022/01/19 00:53:18;;;;;;;14.65;5.20;;;;;;;;;;6223130;22;20003;-77
2022/01/19 00:55:43;;;;;;;18.08;5.43;;;;;;;;;;6275283;22;20003;-78
2022/01/19 00:58:09;;;;;;;13.32;4.00;;;;;;;;;;6247768;22;20004;-75
2022/01/19 01:00:34;;;;;;;13.63;4.60;;;;;;;;;;6274091;22;20004;-77
2022/01/19 01:03:00;;;;;;;12.82;4.18;;;;;;;;;;6284189;22;20086;-78
2022/01/19 01:05:25;;;;;;;12.30;3.70;;;;;;;;;;6275248;22;20330;-77
2022/01/19 01:07:51;;;;;;;10.45;3.90;;;;;;;;;;6273422;22;20038;-77
2022/01/19 01:10:17;;;;;;;10.73;3.53;;;;;;;;;;6275051;22;20000;-77
2022/01/19 01:20:34;;;;;;;14.23;4.60;;;;;;;;;;6270187;22;20019;-78
2022/01/19 01:22:59;;;;;;;15.98;5.18;;;;;;;;;;6273404;22;20003;-77
2022/01/19 01:25:25;;;;;;;17.92;5.47;;;;;;;;;;6291694;22;20060;-77
2022/01/19 01:27:50;;;;;;;17.83;5.97;;;;;;;;;;6222927;22;20000;-78
2022/01/19 01:30:16;;;;;;;17.67;5.72;;;;;;;;;;6275249;22;20061;-78
2022/01/19 01:32:41;;;;;;;20.35;7.80;;;;;;;;;;6275728;22;20032;-78
2022/01/19 01:35:07;;;;;;;15.02;5.63;;;;;;;;;;6273738;22;20086;-78
2022/01/19 01:37:33;;;;;;;17.35;5.00;;;;;;;;;;6273350;22;20011;-77
2022/01/19 01:40:01;;;;;;;19.40;5.93;;;;;;;;;;6273017;22;19996;-78
2022/01/19 01:42:26;;;;;;;16.33;6.55;;;;;;;;;;6248086;22;20077;-77
2022/01/19 01:44:55;;;;;;;17.02;6.18;;;;;;;;;;6275323;22;19995;-81
2022/01/19 01:47:21;;;;;;;22.27;7.10;;;;;;;;;;6281589;22;20083;-77
2022/01/19 01:55:11;;;;;;;21.92;7.15;;;;;;;;;;6251491;22;20014;-77
2022/01/19 01:57:37;;;;;;;21.90;7.82;;;;;;;;;;6273164;22;19999;-78
2022/01/19 02:00:04;;;;;;;21.15;7.45;;;;;;;;;;6275039;22;20005;-78
2022/01/19 02:02:30;;;;;;;24.10;8.13;;;;;;;;;;6273116;22;20038;-77
2022/01/19 02:04:56;;;;;;;20.10;7.35;;;;;;;;;;6274683;22;20339;-77
2022/01/19 02:09:56;;;;;;;21.33;7.22;;;;;;;;;;6283236;22;20484;-77
2022/01/19 02:23:23;;;;;;;20.90;7.10;;;;;;;;;;6274509;22;20073;-77
2022/01/19 02:25:57;;;;;;;17.88;6.80;;;;;;;;;;6274936;22;20015;-77
2022/01/19 02:36:39;;;;;;;19.85;6.07;;;;;;;;;;6275253;22;20445;-76
2022/01/19 02:41:49;;;;;;;24.10;6.35;;;;;;;;;;6275061;22;20010;-77
2022/01/19 02:44:29;;;;;;;17.10;6.13;;;;;;;;;;6276380;22;20000;-77
2022/01/19 02:49:39;;;;;;;18.50;5.90;;;;;;;;;;6292208;22;20023;-77
2022/01/19 02:52:04;;;;;;;20.70;5.97;;;;;;;;;;6276511;22;20004;-77
2022/01/19 02:54:30;;;;;;;18.15;5.90;;;;;;;;;;6274731;22;20027;-77
2022/01/19 02:56:59;;;;;;;16.27;5.93;;;;;;;;;;6276342;22;20014;-77
2022/01/19 02:59:38;;;;;;;21.40;6.68;;;;;;;;;;6275406;22;20007;-78
2022/01/19 03:10:15;;;;;;;15.68;5.82;;;;;;;;;;6294649;22;20065;-78
2022/01/19 03:12:41;;;;;;;27.13;6.38;;;;;;;;;;6249156;22;19999;-77
2022/01/19 03:15:07;;;;;;;16.27;6.88;;;;;;;;;;6249193;22;20323;-78
2022/01/19 03:17:33;;;;;;;26.98;7.85;;;;;;;;;;6226472;22;20012;-78
2022/01/19 03:19:58;;;;;;;24.52;8.43;;;;;;;;;;6275811;22;20330;-78
2022/01/19 03:22:31;;;;;;;25.88;6.78;;;;;;;;;;6275890;22;20073;-77
2022/01/19 03:24:56;;;;;;;18.08;6.80;;;;;;;;;;6274643;22;20026;-77
2022/01/19 03:27:22;;;;;;;23.25;7.45;;;;;;;;;;6248968;22;20380;-77
2022/01/19 03:29:47;;;;;;;19.33;6.15;;;;;;;;;;6283752;22;20008;-77
2022/01/19 03:32:13;;;;;;;20.80;7.57;;;;;;;;;;6278787;22;20006;-78
2022/01/19 03:34:41;;;;;;;12.93;4.60;;;;;;;;;;6276029;22;20007;-78
2022/01/19 03:37:07;;;;;;;20.33;7.20;;;;;;;;;;6248513;22;20095;-77
2022/01/19 03:39:32;;;;;;;22.05;7.85;;;;;;;;;;6274930;22;19999;-77
2022/01/19 03:41:58;;;;;;;20.20;6.72;;;;;;;;;;6275641;22;20027;-77
2022/01/19 03:44:24;;;;;;;21.00;6.78;;;;;;;;;;6275694;22;20000;-77
2022/01/19 03:47:07;;;;;;;22.00;7.13;;;;;;;;;;6274230;22;19996;-77
2022/01/19 03:49:34;;;;;;;33.97;7.88;;;;;;;;;;6277974;22;20065;-78
2022/01/19 03:52:04;;;;;;;19.35;7.85;;;;;;;;;;6277980;22;19996;-77
2022/01/19 03:54:38;;;;;;;23.77;6.80;;;;;;;;;;6274218;22;20003;-77
2022/01/19 03:57:03;;;;;;;21.17;7.72;;;;;;;;;;6275808;22;20308;-77
2022/01/19 03:59:29;;;;;;;19.85;7.00;;;;;;;;;;6276140;22;20045;-76
2022/01/19 04:01:57;;;;;;;31.58;10.27;;;;;;;;;;6250291;22;20085;-77
2022/01/19 04:04:46;;;;;;;25.77;8.52;;;;;;;;;;6274091;22;20000;-76
2022/01/19 04:07:14;;;;;;;31.90;9.05;;;;;;;;;;6253247;22;20046;-77
2022/01/19 04:09:40;;;;;;;34.30;12.63;;;;;;;;;;6290076;22;20003;-77
2022/01/19 04:12:07;;;;;;;37.47;12.02;;;;;;;;;;6293039;22;20077;-78
2022/01/19 04:14:33;;;;;;;35.97;11.75;;;;;;;;;;6275777;22;20355;-77
2022/01/19 04:17:01;;;;;;;41.45;12.43;;;;;;;;;;6275451;22;20004;-77
2022/01/19 04:19:30;;;;;;;38.42;11.98;;;;;;;;;;6273837;22;20039;-77
2022/01/19 04:21:57;;;;;;;35.47;11.23;;;;;;;;;;6284016;22;20423;-77
2022/01/19 04:24:22;;;;;;;35.70;11.90;;;;;;;;;;6274012;22;20003;-78
2022/01/19 04:29:32;;;;;;;32.10;10.98;;;;;;;;;;6274064;22;20355;-77
2022/01/19 04:31:57;;;;;;;31.38;12.07;;;;;;;;;;6293191;22;19999;-77
2022/01/19 04:34:23;;;;;;;30.40;11.75;;;;;;;;;;6274010;22;20011;-78
2022/01/19 04:43:53;;;;;;;35.60;13.65;;;;;;;;;;6249018;22;20008;-78
2022/01/19 04:45:01;;;;;;;37.53;11.18;;;;;;;;;;6275416;22;20014;-78
2022/01/19 05:03:48;;;;;;;42.40;15.50;;;;;;;;;;6277933;22;20010;-77
2022/01/19 05:06:14;;;;;;;51.22;18.60;;;;;;;;;;6276723;22;20008;-77
2022/01/19 05:13:55;;;;;;;54.88;18.27;;;;;;;;;;6285255;22;20010;-76
2022/01/19 05:16:20;;;;;;;43.55;15.30;;;;;;;;;;6274786;22;20007;-76
2022/01/19 05:18:47;;;;;;;50.00;16.70;;;;;;;;;;6247684;22;20061;-76
2022/01/19 05:21:13;;;;;;;53.15;15.85;;;;;;;;;;6249246;22;20597;-76
2022/01/19 05:23:38;;;;;;;32.80;11.30;;;;;;;;;;6276127;22;20476;-75
2022/01/19 05:26:04;;;;;;;65.55;18.13;;;;;;;;;;6273603;22;20023;-76
2022/01/19 05:28:30;;;;;;;52.67;17.38;;;;;;;;;;6273277;22;19999;-76
2022/01/19 05:30:55;;;;;;;53.95;16.80;;;;;;;;;;6274943;22;20007;-77
2022/01/19 05:33:21;;;;;;;57.60;15.55;;;;;;;;;;6286180;22;20135;-77
2022/01/19 05:35:46;;;;;;;45.38;15.75;;;;;;;;;;6275544;22;20012;-76
2022/01/19 05:38:12;;;;;;;32.65;10.80;;;;;;;;;;6273395;22;20024;-74
2022/01/19 05:40:43;;;;;;;43.47;17.02;;;;;;;;;;6273402;22;20010;-77
2022/01/19 05:43:10;;;;;;;44.42;16.02;;;;;;;;;;6273534;22;20000;-75
2022/01/19 05:45:35;;;;;;;48.58;17.77;;;;;;;;;;6273835;22;20040;-77
2022/01/19 05:48:01;;;;;;;56.08;18.80;;;;;;;;;;6246037;22;19999;-76
2022/01/19 05:50:28;;;;;;;56.30;18.35;;;;;;;;;;6271911;22;20008;-78
2022/01/19 05:52:55;;;;;;;58.40;19.75;;;;;;;;;;6276240;22;20004;-77
2022/01/19 05:55:23;;;;;;;58.70;18.50;;;;;;;;;;6227199;22;20091;-76
2022/01/19 05:57:51;;;;;;;51.97;18.60;;;;;;;;;;6270448;22;20000;-77
2022/01/19 06:00:18;;;;;;;61.80;19.90;;;;;;;;;;6273035;22;20479;-76
2022/01/19 06:02:54;;;;;;;69.28;21.45;;;;;;;;;;6274852;22;20027;-74
2022/01/19 06:05:28;;;;;;;52.63;18.60;;;;;;;;;;6272953;22;20405;-78
2022/01/19 06:10:54;;;;;;;53.53;18.60;;;;;;;;;;6278807;22;20012;-78
2022/01/19 06:13:23;;;;;;;;;;;;;;;;;;6287729;22;19999;-78
2022/01/19 06:15:50;;;;;;;54.47;17.38;;;;;;;;;;6291018;22;19914;-80
2022/01/19 06:18:24;;;;;;;53.75;17.27;;;;;;;;;;6283205;22;20003;-79
2022/01/19 06:20:50;;;;;;;54.20;18.83;;;;;;;;;;6280050;22;20152;-77
2022/01/19 06:23:16;;;;;;;50.90;18.65;;;;;;;;;;6253700;22;20000;-78
2022/01/19 06:25:44;;;;;;;60.78;19.13;;;;;;;;;;6252612;22;20038;-79
2022/01/19 06:28:14;;;;;;;68.85;20.55;;;;;;;;;;6275793;22;20027;-81
2022/01/19 06:30:39;;;;;;;59.53;22.17;;;;;;;;;;6260494;22;20010;-81
2022/01/19 06:33:19;;;;;;;66.18;22.20;;;;;;;;;;6236703;22;20004;-79
2022/01/19 06:35:44;;;;;;;79.05;25.67;;;;;;;;;;6289661;22;20090;-77
2022/01/19 06:38:10;;;;;;;92.40;29.20;;;;;;;;;;6288764;22;20003;-79
2022/01/19 06:40:36;;;;;;;85.05;26.77;;;;;;;;;;6256610;22;20077;-77
2022/01/19 06:43:03;;;;;;;86.45;25.67;;;;;;;;;;6285799;22;20438;-79
2022/01/19 06:45:37;;;;;;;74.57;24.25;;;;;;;;;;6283974;22;20051;-79
2022/01/19 06:48:03;;;;;;;68.68;23.60;;;;;;;;;;6277263;22;20149;-76
2022/01/19 06:50:31;;;;;;;69.03;21.15;;;;;;;;;;6279601;22;20014;-80
2022/01/19 06:53:00;;;;;;;71.30;23.27;;;;;;;;;;6281826;22;20004;-77
2022/01/19 06:55:25;;;;;;;71.13;24.05;;;;;;;;;;6283589;22;20000;-79
2022/01/19 06:57:56;;;;;;;97.63;27.52;;;;;;;;;;6283652;22;20003;-76
2022/01/19 07:00:22;;;;;;;88.28;27.08;;;;;;;;;;6249343;22;20004;-77
2022/01/19 07:02:48;;;;;;;90.55;24.73;;;;;;;;;;6275570;22;20062;-75
2022/01/19 07:05:13;;;;;;;70.00;22.92;;;;;;;;;;6243982;22;20008;-76
2022/01/19 07:07:39;;;;;;;69.80;21.77;;;;;;;;;;6276901;22;20492;-79
2022/01/19 07:10:06;;;;;;;55.38;20.75;;;;;;;;;;6275604;22;20350;-78
2022/01/19 07:12:31;;;;;;;52.40;19.45;;;;;;;;;;6258785;22;20004;-78
2022/01/19 07:14:57;;;;;;;56.40;18.55;;;;;;;;;;6286351;22;20053;-77
2022/01/19 07:17:23;;;;;;;47.65;16.90;;;;;;;;;;6278658;22;19996;-78
2022/01/19 07:19:49;;;;;;;44.08;16.15;;;;;;;;;;6251454;22;20323;-77
2022/01/19 07:22:16;;;;;;;51.00;16.33;;;;;;;;;;6250045;22;20006;-75
2022/01/19 07:24:42;;;;;;;50.60;16.52;;;;;;;;;;6273814;22;20419;-77
2022/01/19 07:27:08;;;;;;;42.22;14.10;;;;;;;;;;6258720;22;20039;-78
2022/01/19 07:29:34;;;;;;;54.90;16.17;;;;;;;;;;6277380;22;20354;-78
2022/01/19 07:32:00;;;;;;;61.42;16.95;;;;;;;;;;6284254;22;20007;-74
2022/01/19 07:34:26;;;;;;;51.10;16.10;;;;;;;;;;6250621;22;20011;-76
2022/01/19 07:36:53;;;;;;;50.50;17.65;;;;;;;;;;6250684;22;20379;-76
2022/01/19 07:39:22;;;;;;;54.42;18.73;;;;;;;;;;6280216;22;20004;-77
2022/01/19 07:41:47;;;;;;;57.30;17.75;;;;;;;;;;6283738;22;20038;-77
2022/01/19 07:44:16;;;;;;;47.55;16.10;;;;;;;;;;6278813;22;20010;-81
2022/01/19 07:46:42;;;;;;;49.83;15.57;;;;;;;;;;6282866;22;20023;-78
2022/01/19 07:49:08;;;;;;;40.67;13.13;;;;;;;;;;6254012;22;20011;-77
2022/01/19 07:51:41;;;;;;;37.85;14.30;;;;;;;;;;6286720;22;20003;-78
2022/01/19 07:54:07;;;;;;;49.10;16.38;;;;;;;;;;6287474;22;19996;-76
2022/01/19 07:56:33;;;;;;;45.95;14.40;;;;;;;;;;6275386;22;20011;-77
2022/01/19 07:58:59;;;;;;;48.42;16.10;;;;;;;;;;6276626;22;20346;-75
2022/01/19 08:01:27;;;;;;;49.55;15.85;;;;;;;;;;6247924;22;20402;-77
2022/01/19 08:03:53;;;;;;;52.13;16.77;;;;;;;;;;6274975;22;20000;-77
2022/01/19 08:06:18;;;;;;;45.78;16.58;;;;;;;;;;6274699;22;20062;-77
2022/01/19 08:08:44;;;;;;;50.58;17.27;;;;;;;;;;6275067;22;20003;-79
2022/01/19 08:11:23;;;;;;;45.70;13.48;;;;;;;;;;6258105;22;20007;-78
2022/01/19 08:13:52;;;;;;;47.67;12.68;;;;;;;;;;6278949;22;20026;-77
2022/01/19 08:16:18;;;;;;;119.30;34.25;;;;;;;;;;6250349;22;20041;-79
2022/01/19 08:18:44;;;;;;;193.98;48.88;;;;;;;;;;6250806;22;20035;-77
2022/01/19 08:21:09;;;;;;;42.75;15.13;;;;;;;;;;6278072;22;20059;-76
2022/01/19 08:23:42;;;;;;;45.60;14.82;;;;;;;;;;6276299;22;20000;-75
2022/01/19 08:26:07;;;;;;;44.80;13.88;;;;;;;;;;6273861;22;20396;-80
2022/01/19 08:28:33;;;;;;;51.67;16.02;;;;;;;;;;6272589;22;20006;-75
2022/01/19 08:30:59;;;;;;;55.47;14.93;;;;;;;;;;6280176;22;20054;-76
2022/01/19 08:33:24;;;;;;;47.67;15.45;;;;;;;;;;6284234;22;20023;-79
2022/01/19 08:35:51;;;;;;;59.90;17.52;;;;;;;;;;6278259;22;20086;-78
2022/01/19 08:38:18;;;;;;;44.80;14.85;;;;;;;;;;6274007;22;20004;-76
2022/01/19 08:40:44;;;;;;;45.83;16.27;;;;;;;;;;6270050;22;20003;-77
2022/01/19 08:43:15;;;;;;;49.22;13.90;;;;;;;;;;6221351;22;20011;-78
2022/01/19 08:45:45;;;;;;;36.47;12.10;;;;;;;;;;6249015;22;20008;-77
2022/01/19 08:48:11;;;;;;;58.17;14.07;;;;;;;;;;6250660;22;20009;-78
2022/01/19 08:50:39;;;;;;;70.53;18.58;;;;;;;;;;6279294;22;20083;-77
2022/01/19 08:53:07;;;;;;;66.40;17.63;;;;;;;;;;6279574;22;20000;-77
2022/01/19 08:55:33;;;;;;;55.67;17.42;;;;;;;;;;6276169;22;20004;-78
2022/01/19 08:58:02;;;;;;;50.35;13.80;;;;;;;;;;6252238;22;20043;-80
2022/01/19 09:00:48;;;;;;;45.95;13.60;;;;;;;;;;6276086;22;20000;-80
2022/01/19 09:03:38;;;;;;;55.63;13.85;;;;;;;;;;6270914;22;20004;-77
2022/01/19 09:06:07;;;;;;;50.80;15.55;;;;;;;;;;6248937;22;20000;-79
2022/01/19 09:08:34;;;;;;;67.25;16.30;;;;;;;;;;6273353;22;20007;-76
2022/01/19 09:11:01;;;;;;;47.60;15.82;;;;;;;;;;6280999;22;20101;-77
2022/01/19 09:17:08;;;;;;;43.20;14.07;;;;;;;;;;6215715;23;20022;-78
2022/01/19 09:19:39;;;;;;;75.90;28.77;;;;;;;;;;6211821;23;20004;-77
2022/01/19 09:22:09;;;;;;;53.38;16.90;;;;;;;;;;6209041;22;20007;-76
2022/01/19 09:24:36;;;;;;;44.30;12.95;;;;;;;;;;6247567;22;19996;-76
2022/01/19 09:33:35;;;;;;;43.35;13.43;;;;;;;;;;6260366;22;20011;-76
2022/01/19 09:38:30;;;;;;;40.95;14.00;;;;;;;;;;6279884;22;20004;-79
2022/01/19 09:41:01;;;;;;;45.30;14.27;;;;;;;;;;6278647;22;20000;-77
2022/01/19 09:46:29;;;;;;;46.28;13.23;;;;;;;;;;6246620;23;20011;-78
2022/01/19 09:48:59;;;;;;;34.33;11.50;;;;;;;;;;6221045;23;20371;-76
2022/01/19 09:51:26;;;;;;;43.03;13.10;;;;;;;;;;6219402;23;20111;-75
2022/01/19 09:53:55;;;;;;;44.20;13.35;;;;;;;;;;6241082;23;20127;-76
2022/01/19 09:56:21;;;;;;;46.33;13.65;;;;;;;;;;6240358;23;20060;-76
2022/01/19 09:59:07;;;;;;;47.72;12.88;;;;;;;;;;6240595;23;20035;-77
2022/01/19 10:01:50;;;;;;;47.95;13.88;;;;;;;;;;6225206;23;20090;-79
2022/01/19 10:04:29;;;;;;;37.00;11.77;;;;;;;;;;6251050;23;20018;-80
2022/01/19 10:07:25;;;;;;;47.65;13.10;;;;;;;;;;6225492;23;20012;-79
2022/01/19 10:09:58;;;;;;;39.70;14.63;;;;;;;;;;6224046;23;20083;-79
2022/01/19 10:19:05;;;;;;;39.13;13.32;;;;;;;;;;6237091;23;20048;-81
2022/01/19 10:21:32;;;;;;;43.35;14.77;;;;;;;;;;6205740;23;20008;-78
2022/01/19 10:23:59;;;;;;;37.45;12.52;;;;;;;;;;6259304;22;20003;-81
2022/01/19 10:26:26;;;;;;;43.85;13.88;;;;;;;;;;6282162;22;20031;-80
2022/01/19 10:29:07;;;;;;;43.53;11.68;;;;;;;;;;6256938;22;20015;-80
2022/01/19 10:31:34;;;;;;;46.55;13.93;;;;;;;;;;6287573;22;20004;-77
2022/01/19 10:34:16;;;;;;;34.25;10.85;;;;;;;;;;6256184;22;20004;-83
2022/01/19 10:37:22;;;;;;;53.45;13.27;;;;;;;;;;6295779;22;20011;-80
2022/01/19 10:39:57;;;;;;;36.42;10.93;;;;;;;;;;6285059;22;20094;-79
2022/01/19 10:42:35;;;;;;;35.33;11.68;;;;;;;;;;6229138;22;20107;-78
2022/01/19 10:45:15;;;;;;;44.90;12.70;;;;;;;;;;6280591;22;20031;-81
2022/01/19 10:47:45;;;;;;;66.03;24.85;;;;;;;;;;6278836;22;20000;-80
2022/01/19 10:50:33;;;;;;;33.60;12.25;;;;;;;;;;6262738;22;20011;-77
2022/01/19 10:53:03;;;;;;;34.38;14.73;;;;;;;;;;6281214;22;20025;-81
2022/01/19 10:55:39;;;;;;;47.47;19.25;;;;;;;;;;6283265;22;20003;-77
2022/01/19 10:58:14;;;;;;;37.33;13.77;;;;;;;;;;6289529;22;19999;-80
2022/01/19 11:00:40;;;;;;;52.67;17.50;;;;;;;;;;6236769;22;20008;-80
2022/01/19 11:03:20;;;;;;;39.47;14.27;;;;;;;;;;6253931;22;20027;-80
2022/01/19 11:05:48;;;;;;;37.17;11.18;;;;;;;;;;6282380;22;20008;-80
2022/01/19 11:08:23;;;;;;;27.88;9.10;;;;;;;;;;6230965;22;20006;-77
2022/01/19 11:10:50;;;;;;;33.90;10.40;;;;;;;;;;6294438;22;20018;-79
2022/01/19 11:15:52;;;;;;;39.38;14.10;;;;;;;;;;6274659;22;20373;-77
2022/01/19 11:18:25;;;;;;;32.08;9.68;;;;;;;;;;6274648;22;20054;-79
2022/01/19 11:20:51;;;;;;;23.00;8.18;;;;;;;;;;6252130;22;20004;-79
2022/01/19 11:23:41;;;;;;;62.42;14.77;;;;;;;;;;6282509;22;20059;-81
2022/01/19 11:26:11;;;;;;;36.95;11.07;;;;;;;;;;6277958;22;20030;-79
2022/01/19 11:28:38;;;;;;;32.30;11.52;;;;;;;;;;6227893;22;20443;-78
2022/01/19 11:31:14;;;;;;;27.70;10.68;;;;;;;;;;6288133;22;20336;-78
2022/01/19 11:33:44;;;;;;;31.15;8.65;;;;;;;;;;6279821;22;20003;-76
2022/01/19 11:36:36;;;;;;;29.38;9.82;;;;;;;;;;6277994;22;20008;-77
2022/01/19 11:39:11;;;;;;;29.63;9.73;;;;;;;;;;6280405;22;19995;-76
2022/01/19 11:41:54;;;;;;;52.70;15.48;;;;;;;;;;6280239;22;20493;-76
2022/01/19 11:44:28;;;;;;;48.15;14.88;;;;;;;;;;6274783;22;20426;-76
2022/01/19 11:46:55;;;;;;;49.45;15.82;;;;;;;;;;6273634;22;20010;-76
2022/01/19 11:49:59;;;;;;;26.83;10.52;;;;;;;;;;6276848;22;19996;-75
2022/01/19 11:52:37;;;;;;;27.85;9.45;;;;;;;;;;6277329;22;20039;-77
2022/01/19 11:55:13;;;;;;;45.35;11.85;;;;;;;;;;6279104;22;20000;-79
2022/01/19 11:57:40;;;;;;;45.38;11.77;;;;;;;;;;6275759;22;20003;-77
2022/01/19 12:00:16;;;;;;;43.13;10.13;;;;;;;;;;6252074;22;20011;-78
2022/01/19 12:02:45;;;;;;;43.33;9.77;;;;;;;;;;6277146;22;20000;-80
2022/01/19 12:05:33;;;;;;;63.72;16.25;;;;;;;;;;6250210;22;20010;-78
2022/01/19 12:08:00;;;;;;;43.00;13.07;;;;;;;;;;6277927;22;20015;-77
2022/01/19 12:10:30;;;;;;;43.35;11.55;;;;;;;;;;6280623;22;20007;-76
2022/01/19 12:13:25;;;;;;;40.60;11.98;;;;;;;;;;6279286;22;20007;-78
2022/01/19 12:15:56;;;;;;;39.60;12.18;;;;;;;;;;6280120;22;20010;-77
2022/01/19 12:19:04;;;;;;;41.22;12.07;;;;;;;;;;6277492;22;20004;-76
2022/01/19 12:21:32;;;;;;;50.05;14.60;;;;;;;;;;6236136;22;20080;-78
2022/01/19 12:24:21;;;;;;;37.20;13.27;;;;;;;;;;6276207;22;20008;-77
2022/01/19 12:26:55;;;;;;;36.42;10.88;;;;;;;;;;6275041;22;20026;-77
2022/01/19 12:29:33;;;;;;;46.25;13.77;;;;;;;;;;6277718;22;20010;-78
2022/01/19 12:32:03;;;;;;;44.55;14.20;;;;;;;;;;6279983;22;20035;-77
2022/01/19 12:34:55;;;;;;;36.80;11.48;;;;;;;;;;6250389;22;20000;-77
2022/01/19 12:37:30;;;;;;;32.55;10.05;;;;;;;;;;6248517;22;20138;-77
2022/01/19 12:39:55;;;;;;;37.53;11.93;;;;;;;;;;6278382;22;20007;-76
2022/01/19 12:42:27;;;;;;;34.47;12.35;;;;;;;;;;6276547;22;20007;-76
2022/01/19 12:44:58;;;;;;;34.20;10.82;;;;;;;;;;6249804;22;20053;-76
2022/01/19 12:47:30;;;;;;;33.92;10.20;;;;;;;;;;6248570;22;20011;-76
2022/01/19 12:50:08;;;;;;;39.13;12.57;;;;;;;;;;6284668;22;20075;-76
2022/01/19 12:52:34;;;;;;;38.88;13.90;;;;;;;;;;6275282;22;20008;-76
2022/01/19 12:55:15;;;;;;;31.60;10.38;;;;;;;;;;6248080;22;20000;-76
2022/01/19 12:57:41;;;;;;;36.10;13.70;;;;;;;;;;6248112;22;20002;-77
2022/01/19 13:00:13;;;;;;;42.25;12.10;;;;;;;;;;6277021;22;20328;-77
2022/01/19 13:02:38;;;;;;;55.38;16.10;;;;;;;;;;6274082;22;20000;-75
2022/01/19 13:05:09;;;;;;;65.90;21.38;;;;;;;;;;6249641;22;20086;-75
2022/01/19 13:07:38;;;;;;;50.08;17.70;;;;;;;;;;6276558;22;20331;-75
2022/01/19 13:10:20;;;;;;;83.73;26.47;;;;;;;;;;6279894;22;20003;-76
2022/01/19 13:13:12;;;;;;;74.72;25.33;;;;;;;;;;6277387;22;20419;-76
2022/01/19 13:15:43;;;;;;;47.47;16.08;;;;;;;;;;6275392;22;20082;-77
2022/01/19 13:18:08;;;;;;;;;;;;;;;;;;6276861;22;20023;-77
2022/01/19 13:20:34;;;;;;;49.20;14.75;;;;;;;;;;6278308;22;20231;-77
2022/01/19 13:23:04;;;;;;;46.45;16.52;;;;;;;;;;6250719;22;20026;-79
2022/01/19 13:25:32;;;;;;;40.03;14.13;;;;;;;;;;6276451;22;20433;-77
2022/01/19 13:28:00;;;;;;;51.70;18.77;;;;;;;;;;6277422;22;20004;-76
2022/01/19 13:30:27;;;;;;;49.40;15.60;;;;;;;;;;6261888;22;20004;-78
2022/01/19 13:32:52;;;;;;;44.70;13.60;;;;;;;;;;6253147;22;20074;-79
2022/01/19 13:35:18;;;;;;;49.20;14.55;;;;;;;;;;6225228;22;20007;-78
2022/01/19 13:37:58;;;;;;;51.90;15.40;;;;;;;;;;6249472;22;20004;-76
2022/01/19 13:40:29;;;;;;;64.90;21.27;;;;;;;;;;6276890;22;20011;-79
2022/01/19 13:42:59;;;;;;;;;;;;;;;;;;6275096;22;20241;-78
2022/01/19 13:48:05;;;;;;;41.07;13.90;;;;;;;;;;6259061;22;20007;-77
2022/01/19 13:50:33;;;;;;;53.60;14.88;;;;;;;;;;6265282;22;20003;-78
2022/01/19 13:53:00;;;;;;;42.17;13.55;;;;;;;;;;6254265;22;20011;-77
2022/01/19 13:55:26;;;;;;;37.70;13.27;;;;;;;;;;6252741;22;20107;-75
2022/01/19 13:58:09;;;;;;;58.33;16.30;;;;;;;;;;6275711;22;20036;-78
2022/01/19 14:00:35;;;;;;;48.75;14.82;;;;;;;;;;6277486;22;20010;-78
2022/01/19 14:03:03;;;;;;;52.45;16.20;;;;;;;;;;6275346;22;20310;-77
2022/01/19 14:05:43;;;;;;;53.80;15.25;;;;;;;;;;6250619;22;20094;-76
2022/01/19 14:08:10;;;;;;;50.97;15.50;;;;;;;;;;6275282;22;20407;-76
2022/01/19 14:10:46;;;;;;;63.47;17.73;;;;;;;;;;6288351;22;20047;-76
2022/01/19 14:13:26;;;;;;;45.65;13.48;;;;;;;;;;6274829;22;20074;-79
2022/01/19 14:15:55;;;;;;;44.13;13.60;;;;;;;;;;6274316;22;20007;-79
2022/01/19 14:18:20;;;;;;;53.40;17.80;;;;;;;;;;6248995;22;20233;-78
2022/01/19 14:21:03;;;;;;;50.15;16.00;;;;;;;;;;6274214;22;20008;-79
2022/01/19 14:23:29;;;;;;;69.30;19.33;;;;;;;;;;6276411;22;20004;-79
2022/01/19 14:26:07;;;;;;;53.90;16.73;;;;;;;;;;6276470;22;20346;-78
2022/01/19 14:28:33;;;;;;;42.20;14.20;;;;;;;;;;6274954;22;20038;-77
2022/01/19 14:31:06;;;;;;;52.85;16.00;;;;;;;;;;6285942;22;20004;-78
2022/01/19 14:33:31;;;;;;;52.45;16.88;;;;;;;;;;6280828;22;20453;-77
2022/01/19 14:35:59;;;;;;;53.15;17.48;;;;;;;;;;6275355;22;20004;-76
2022/01/19 14:38:35;;;;;;;61.58;19.23;;;;;;;;;;6280782;22;20083;-77
2022/01/19 14:41:05;;;;;;;77.93;22.48;;;;;;;;;;6276971;22;20003;-77
2022/01/19 14:43:42;;;;;;;55.17;17.77;;;;;;;;;;6276106;22;20078;-77
2022/01/19 14:46:11;;;;;;;68.10;19.92;;;;;;;;;;6274935;22;20393;-78
2022/01/19 14:48:41;;;;;;;69.13;21.23;;;;;;;;;;6276449;22;20076;-78
2022/01/19 14:51:16;;;;;;;73.53;21.50;;;;;;;;;;6291260;22;20083;-79
2022/01/19 14:53:42;;;;;;;76.43;21.60;;;;;;;;;;6276441;22;20079;-77
2022/01/19 14:56:08;;;;;;;75.30;24.38;;;;;;;;;;6276166;22;20351;-79
2022/01/19 14:58:33;;;;;;;83.75;26.02;;;;;;;;;;6276514;22;20026;-78
2022/01/19 15:00:59;;;;;;;69.28;23.23;;;;;;;;;;6278328;22;19995;-79
2022/01/19 15:03:24;;;;;;;71.80;24.77;;;;;;;;;;6275372;22;20085;-79
2022/01/19 15:05:50;;;;;;;89.65;25.75;;;;;;;;;;6275778;22;20312;-77
2022/01/19 15:08:16;;;;;;;66.18;21.30;;;;;;;;;;6275058;22;20050;-77
2022/01/19 15:10:41;;;;;;;71.18;23.02;;;;;;;;;;6283818;22;19992;-77
2022/01/19 15:13:07;;;;;;;81.50;26.52;;;;;;;;;;6281306;22;20028;-77
2022/01/19 15:15:34;;;;;;;109.40;34.72;;;;;;;;;;6274943;22;19995;-77
2022/01/19 15:18:02;;;;;;;91.25;28.52;;;;;;;;;;6248391;22;20426;-77
2022/01/19 15:20:29;;;;;;;82.45;29.17;;;;;;;;;;6224487;22;19999;-77
2022/01/19 15:22:59;;;;;;;160.23;43.22;;;;;;;;;;6276265;22;20287;-79
2022/01/19 15:25:33;;;;;;;149.63;43.90;;;;;;;;;;6275768;22;20000;-79
2022/01/19 15:27:59;;;;;;;132.13;38.97;;;;;;;;;;6274183;22;20004;-79
2022/01/19 15:30:28;;;;;;;156.02;40.45;;;;;;;;;;6276224;22;20079;-78
2022/01/19 15:32:54;;;;;;;101.22;29.15;;;;;;;;;;6293498;22;20004;-78
2022/01/19 15:35:20;;;;;;;78.78;24.17;;;;;;;;;;6274981;22;20015;-80
2022/01/19 15:37:45;;;;;;;80.55;25.85;;;;;;;;;;6275998;22;19999;-78
2022/01/19 15:40:14;;;;;;;84.25;24.40;;;;;;;;;;6275990;22;20079;-77
2022/01/19 15:42:41;;;;;;;94.20;27.58;;;;;;;;;;6276545;22;20430;-76
2022/01/19 15:45:09;;;;;;;81.07;24.23;;;;;;;;;;6275625;22;20004;-79
2022/01/19 15:47:34;;;;;;;101.22;28.23;;;;;;;;;;6276208;22;20342;-78
2022/01/19 15:50:00;;;;;;;91.70;28.88;;;;;;;;;;6274794;22;19996;-78
2022/01/19 15:52:26;;;;;;;91.50;26.10;;;;;;;;;;6284310;22;19994;-79
2022/01/19 15:54:52;;;;;;;92.05;27.25;;;;;;;;;;6292785;22;20011;-78
2022/01/19 15:57:17;;;;;;;96.65;29.33;;;;;;;;;;6275386;22;20015;-79
2022/01/19 15:59:43;;;;;;;92.18;28.20;;;;;;;;;;6275637;22;20004;-78
2022/01/19 16:02:08;;;;;;;87.40;29.27;;;;;;;;;;6275589;22;20000;-79
2022/01/19 16:04:34;;;;;;;94.65;29.48;;;;;;;;;;6277959;22;20439;-79
2022/01/19 16:06:59;;;;;;;84.03;28.88;;;;;;;;;;6274177;22;20008;-78
2022/01/19 16:09:25;;;;;;;109.07;32.60;;;;;;;;;;6275543;22;20003;-78
2022/01/19 16:11:52;;;;;;;121.90;35.40;;;;;;;;;;6275728;22;19999;-78
2022/01/19 16:14:18;;;;;;;128.82;38.03;;;;;;;;;;6278015;22;20075;-78
2022/01/19 16:16:44;;;;;;;134.02;40.42;;;;;;;;;;6277091;22;20007;-78
2022/01/19 16:19:09;;;;;;;122.72;38.85;;;;;;;;;;6275813;22;20122;-78
2022/01/19 16:21:36;;;;;;;119.25;37.80;;;;;;;;;;6275520;22;20377;-78
2022/01/19 16:26:46;;;;;;;90.97;26.73;;;;;;;;;;6274254;22;20086;-78